La Fayette, Illinois
Current Conditions -  °F | °C
As of 2:35 AM on Monday 22 Dec 2014 (Local Time) from KGBG Reporting Station
Overcast Overcast  
Wind Chill: 30°   Ceiling: 4100
Heat Index: 36°   Visibility: 10mi
Dew Point: 32°   Wind: 7mph
Humidity: 86%   Direction: 130°SE
Pressure: 29.88"   Gusts: NA
Location:  41.11°N, 89.97°W
Report Text: KGBG 220835Z AUTO 13006KT 10SM OVC041 02/00 A2988 RMK AO2 T00210000
Loading
Personal Weather Stations






























Interactive Weather Map New forecast layout! Learn more

10-Day Weather Forecast

Advertisements
Track Severe Weather on mobile